sensor_id;sensor_type;location;lat;lon;timestamp;P1;durP1;ratioP1;P2;durP2;ratioP2
19301;SDS011;9785;59.362;12.152;2023-06-14T00:01:52;4.03;;;3.50;;
19301;SDS011;9785;59.362;12.152;2023-06-14T00:04:21;7.87;;;3.27;;
19301;SDS011;9785;59.362;12.152;2023-06-14T00:06:52;3.27;;;2.93;;
19301;SDS011;9785;59.362;12.152;2023-06-14T00:09:24;5.57;;;3.50;;
19301;SDS011;9785;59.362;12.152;2023-06-14T00:11:53;3.60;;;3.30;;
19301;SDS011;9785;59.362;12.152;2023-06-14T00:14:22;4.63;;;3.40;;
19301;SDS011;9785;59.362;12.152;2023-06-14T00:16:50;3.37;;;3.13;;
19301;SDS011;9785;59.362;12.152;2023-06-14T00:19:25;5.87;;;3.70;;
19301;SDS011;9785;59.362;12.152;2023-06-14T00:21:55;3.50;;;3.20;;
19301;SDS011;9785;59.362;12.152;2023-06-14T00:24:25;5.03;;;3.50;;
19301;SDS011;9785;59.362;12.152;2023-06-14T00:26:54;3.80;;;3.50;;
19301;SDS011;9785;59.362;12.152;2023-06-14T00:29:23;6.23;;;3.67;;
19301;SDS011;9785;59.362;12.152;2023-06-14T00:31:51;5.10;;;4.30;;
19301;SDS011;9785;59.362;12.152;2023-06-14T00:34:20;7.10;;;4.10;;
19301;SDS011;9785;59.362;12.152;2023-06-14T00:36:49;7.27;;;4.80;;
19301;SDS011;9785;59.362;12.152;2023-06-14T00:39:17;6.07;;;4.30;;
19301;SDS011;9785;59.362;12.152;2023-06-14T00:41:48;6.00;;;4.40;;
19301;SDS011;9785;59.362;12.152;2023-06-14T00:44:17;5.00;;;4.50;;
19301;SDS011;9785;59.362;12.152;2023-06-14T00:46:45;5.37;;;4.30;;
19301;SDS011;9785;59.362;12.152;2023-06-14T00:49:14;6.13;;;4.60;;
19301;SDS011;9785;59.362;12.152;2023-06-14T00:51:45;4.73;;;4.30;;
19301;SDS011;9785;59.362;12.152;2023-06-14T00:54:14;5.13;;;4.70;;
19301;SDS011;9785;59.362;12.152;2023-06-14T00:56:42;7.70;;;5.20;;
19301;SDS011;9785;59.362;12.152;2023-06-14T00:59:13;8.60;;;4.80;;
19301;SDS011;9785;59.362;12.152;2023-06-14T01:01:42;5.17;;;4.77;;
19301;SDS011;9785;59.362;12.152;2023-06-14T01:04:11;10.73;;;4.93;;
19301;SDS011;9785;59.362;12.152;2023-06-14T01:06:41;5.20;;;4.70;;
19301;SDS011;9785;59.362;12.152;2023-06-14T01:09:15;9.43;;;5.33;;
19301;SDS011;9785;59.362;12.152;2023-06-14T01:11:48;5.47;;;4.50;;
19301;SDS011;9785;59.362;12.152;2023-06-14T01:14:19;6.57;;;4.87;;
19301;SDS011;9785;59.362;12.152;2023-06-14T01:16:48;6.60;;;4.03;;
19301;SDS011;9785;59.362;12.152;2023-06-14T01:19:20;4.23;;;3.93;;
19301;SDS011;9785;59.362;12.152;2023-06-14T01:21:49;4.20;;;3.83;;
19301;SDS011;9785;59.362;12.152;2023-06-14T01:24:19;5.03;;;4.10;;
19301;SDS011;9785;59.362;12.152;2023-06-14T01:26:50;4.40;;;4.00;;
19301;SDS011;9785;59.362;12.152;2023-06-14T01:29:22;4.30;;;4.00;;
19301;SDS011;9785;59.362;12.152;2023-06-14T01:31:51;7.10;;;3.70;;
19301;SDS011;9785;59.362;12.152;2023-06-14T01:34:21;4.50;;;4.03;;
19301;SDS011;9785;59.362;12.152;2023-06-14T01:36:50;7.03;;;3.90;;
19301;SDS011;9785;59.362;12.152;2023-06-14T01:39:22;5.33;;;4.27;;
19301;SDS011;9785;59.362;12.152;2023-06-14T01:41:51;5.80;;;4.10;;
19301;SDS011;9785;59.362;12.152;2023-06-14T01:44:20;6.43;;;3.87;;
19301;SDS011;9785;59.362;12.152;2023-06-14T01:46:49;4.80;;;4.20;;
19301;SDS011;9785;59.362;12.152;2023-06-14T01:49:17;8.27;;;3.83;;
19301;SDS011;9785;59.362;12.152;2023-06-14T01:51:46;6.27;;;4.10;;
19301;SDS011;9785;59.362;12.152;2023-06-14T01:54:15;8.83;;;4.40;;
19301;SDS011;9785;59.362;12.152;2023-06-14T01:56:45;6.53;;;4.30;;
19301;SDS011;9785;59.362;12.152;2023-06-14T01:59:13;4.87;;;4.13;;
19301;SDS011;9785;59.362;12.152;2023-06-14T02:01:42;6.27;;;4.10;;
19301;SDS011;9785;59.362;12.152;2023-06-14T02:04:12;5.97;;;4.50;;
19301;SDS011;9785;59.362;12.152;2023-06-14T02:06:41;5.97;;;3.93;;
19301;SDS011;9785;59.362;12.152;2023-06-14T02:09:10;5.00;;;4.33;;
19301;SDS011;9785;59.362;12.152;2023-06-14T02:11:38;4.57;;;4.03;;
19301;SDS011;9785;59.362;12.152;2023-06-14T02:14:08;6.77;;;4.17;;
19301;SDS011;9785;59.362;12.152;2023-06-14T02:16:38;4.30;;;3.90;;
19301;SDS011;9785;59.362;12.152;2023-06-14T02:19:07;4.87;;;3.83;;
19301;SDS011;9785;59.362;12.152;2023-06-14T02:21:35;4.67;;;4.27;;
19301;SDS011;9785;59.362;12.152;2023-06-14T02:24:04;5.33;;;4.23;;
19301;SDS011;9785;59.362;12.152;2023-06-14T02:26:33;6.20;;;4.60;;
19301;SDS011;9785;59.362;12.152;2023-06-14T02:29:01;5.47;;;4.00;;
19301;SDS011;9785;59.362;12.152;2023-06-14T02:31:32;4.33;;;3.93;;
19301;SDS011;9785;59.362;12.152;2023-06-14T02:34:00;4.70;;;4.13;;
19301;SDS011;9785;59.362;12.152;2023-06-14T02:36:29;4.63;;;4.17;;
19301;SDS011;9785;59.362;12.152;2023-06-14T02:38:58;4.70;;;4.30;;
19301;SDS011;9785;59.362;12.152;2023-06-14T02:41:26;5.13;;;3.83;;
19301;SDS011;9785;59.362;12.152;2023-06-14T02:43:55;8.57;;;4.50;;
19301;SDS011;9785;59.362;12.152;2023-06-14T02:46:25;8.03;;;4.47;;
19301;SDS011;9785;59.362;12.152;2023-06-14T02:48:55;5.07;;;4.30;;
19301;SDS011;9785;59.362;12.152;2023-06-14T02:51:24;4.67;;;4.13;;
19301;SDS011;9785;59.362;12.152;2023-06-14T02:53:52;4.70;;;4.30;;
19301;SDS011;9785;59.362;12.152;2023-06-14T02:56:21;7.10;;;4.40;;
19301;SDS011;9785;59.362;12.152;2023-06-14T02:58:50;5.03;;;4.63;;
19301;SDS011;9785;59.362;12.152;2023-06-14T03:01:19;4.57;;;4.17;;
19301;SDS011;9785;59.362;12.152;2023-06-14T03:03:49;5.20;;;4.23;;
19301;SDS011;9785;59.362;12.152;2023-06-14T03:06:19;5.83;;;4.23;;
19301;SDS011;9785;59.362;12.152;2023-06-14T03:08:51;5.40;;;4.67;;
19301;SDS011;9785;59.362;12.152;2023-06-14T03:11:21;4.70;;;4.30;;
19301;SDS011;9785;59.362;12.152;2023-06-14T03:13:50;7.10;;;4.70;;
19301;SDS011;9785;59.362;12.152;2023-06-14T03:16:19;7.83;;;4.67;;
19301;SDS011;9785;59.362;12.152;2023-06-14T03:18:51;6.53;;;4.57;;
19301;SDS011;9785;59.362;12.152;2023-06-14T03:21:21;5.23;;;4.73;;
19301;SDS011;9785;59.362;12.152;2023-06-14T03:23:49;4.90;;;4.50;;
19301;SDS011;9785;59.362;12.152;2023-06-14T03:26:19;5.30;;;4.53;;
19301;SDS011;9785;59.362;12.152;2023-06-14T03:28:48;6.43;;;4.40;;
19301;SDS011;9785;59.362;12.152;2023-06-14T03:31:17;5.57;;;4.40;;
19301;SDS011;9785;59.362;12.152;2023-06-14T03:33:46;4.53;;;4.13;;
19301;SDS011;9785;59.362;12.152;2023-06-14T03:36:15;4.20;;;3.80;;
19301;SDS011;9785;59.362;12.152;2023-06-14T03:38:45;5.63;;;3.97;;
19301;SDS011;9785;59.362;12.152;2023-06-14T03:41:14;6.30;;;4.30;;
19301;SDS011;9785;59.362;12.152;2023-06-14T03:43:42;4.70;;;4.30;;
19301;SDS011;9785;59.362;12.152;2023-06-14T03:46:11;8.67;;;4.50;;
19301;SDS011;9785;59.362;12.152;2023-06-14T03:48:40;4.73;;;4.33;;
19301;SDS011;9785;59.362;12.152;2023-06-14T03:51:09;5.07;;;4.50;;
19301;SDS011;9785;59.362;12.152;2023-06-14T03:53:38;10.30;;;4.80;;
19301;SDS011;9785;59.362;12.152;2023-06-14T03:56:25;5.07;;;4.57;;
19301;SDS011;9785;59.362;12.152;2023-06-14T03:58:54;5.00;;;4.50;;
19301;SDS011;9785;59.362;12.152;2023-06-14T04:01:23;4.13;;;3.83;;
19301;SDS011;9785;59.362;12.152;2023-06-14T04:03:53;4.80;;;4.03;;
19301;SDS011;9785;59.362;12.152;2023-06-14T04:06:22;5.60;;;4.07;;
19301;SDS011;9785;59.362;12.152;2023-06-14T04:08:58;6.13;;;3.90;;
19301;SDS011;9785;59.362;12.152;2023-06-14T04:11:32;6.77;;;4.20;;
19301;SDS011;9785;59.362;12.152;2023-06-14T04:14:01;4.73;;;4.17;;
19301;SDS011;9785;59.362;12.152;2023-06-14T04:16:30;5.40;;;4.17;;
19301;SDS011;9785;59.362;12.152;2023-06-14T04:18:58;7.43;;;4.27;;
19301;SDS011;9785;59.362;12.152;2023-06-14T04:21:27;5.07;;;4.53;;
19301;SDS011;9785;59.362;12.152;2023-06-14T04:23:56;5.77;;;4.03;;
19301;SDS011;9785;59.362;12.152;2023-06-14T04:26:24;6.30;;;4.47;;
19301;SDS011;9785;59.362;12.152;2023-06-14T04:28:58;4.20;;;3.93;;
19301;SDS011;9785;59.362;12.152;2023-06-14T04:31:28;7.57;;;4.70;;
19301;SDS011;9785;59.362;12.152;2023-06-14T04:34:00;5.50;;;5.00;;
19301;SDS011;9785;59.362;12.152;2023-06-14T04:36:32;5.60;;;5.10;;
19301;SDS011;9785;59.362;12.152;2023-06-14T04:39:03;6.03;;;5.43;;
19301;SDS011;9785;59.362;12.152;2023-06-14T04:41:32;10.60;;;5.67;;
19301;SDS011;9785;59.362;12.152;2023-06-14T04:44:03;5.97;;;5.30;;
19301;SDS011;9785;59.362;12.152;2023-06-14T04:46:31;5.60;;;4.77;;
19301;SDS011;9785;59.362;12.152;2023-06-14T04:49:12;9.40;;;5.90;;
19301;SDS011;9785;59.362;12.152;2023-06-14T04:51:42;6.03;;;5.50;;
19301;SDS011;9785;59.362;12.152;2023-06-14T04:54:11;5.53;;;5.03;;
19301;SDS011;9785;59.362;12.152;2023-06-14T04:56:41;9.50;;;5.87;;
19301;SDS011;9785;59.362;12.152;2023-06-14T04:59:12;7.00;;;6.30;;
19301;SDS011;9785;59.362;12.152;2023-06-14T05:01:43;7.20;;;6.60;;
19301;SDS011;9785;59.362;12.152;2023-06-14T05:04:15;8.07;;;6.80;;
19301;SDS011;9785;59.362;12.152;2023-06-14T05:06:43;7.47;;;6.60;;
19301;SDS011;9785;59.362;12.152;2023-06-14T05:09:14;7.87;;;6.57;;
19301;SDS011;9785;59.362;12.152;2023-06-14T05:11:43;7.90;;;6.50;;
19301;SDS011;9785;59.362;12.152;2023-06-14T05:14:13;7.00;;;6.00;;
19301;SDS011;9785;59.362;12.152;2023-06-14T05:16:42;8.37;;;6.10;;
19301;SDS011;9785;59.362;12.152;2023-06-14T05:19:11;8.13;;;6.20;;
19301;SDS011;9785;59.362;12.152;2023-06-14T05:21:40;7.50;;;6.00;;
19301;SDS011;9785;59.362;12.152;2023-06-14T05:24:09;7.07;;;5.40;;
19301;SDS011;9785;59.362;12.152;2023-06-14T05:26:38;8.00;;;5.80;;
19301;SDS011;9785;59.362;12.152;2023-06-14T05:29:07;6.80;;;6.07;;
19301;SDS011;9785;59.362;12.152;2023-06-14T05:31:37;10.47;;;4.90;;
19301;SDS011;9785;59.362;12.152;2023-06-14T05:34:05;7.43;;;4.70;;
19301;SDS011;9785;59.362;12.152;2023-06-14T05:36:34;8.07;;;4.57;;
19301;SDS011;9785;59.362;12.152;2023-06-14T05:39:03;5.23;;;4.70;;
19301;SDS011;9785;59.362;12.152;2023-06-14T05:41:33;6.33;;;4.90;;
19301;SDS011;9785;59.362;12.152;2023-06-14T05:44:01;5.53;;;4.97;;
19301;SDS011;9785;59.362;12.152;2023-06-14T05:46:30;5.27;;;4.23;;
19301;SDS011;9785;59.362;12.152;2023-06-14T05:49:00;4.67;;;4.00;;
19301;SDS011;9785;59.362;12.152;2023-06-14T05:51:29;4.20;;;3.80;;
19301;SDS011;9785;59.362;12.152;2023-06-14T05:53:57;5.03;;;3.70;;
19301;SDS011;9785;59.362;12.152;2023-06-14T05:56:26;4.83;;;3.70;;
19301;SDS011;9785;59.362;12.152;2023-06-14T05:58:55;6.00;;;4.33;;
19301;SDS011;9785;59.362;12.152;2023-06-14T06:01:24;5.95;;;4.38;;
19301;SDS011;9785;59.362;12.152;2023-06-14T06:03:52;5.23;;;3.90;;
19301;SDS011;9785;59.362;12.152;2023-06-14T06:06:23;5.17;;;4.20;;
19301;SDS011;9785;59.362;12.152;2023-06-14T06:08:52;5.20;;;4.70;;
19301;SDS011;9785;59.362;12.152;2023-06-14T06:11:21;4.47;;;4.07;;
19301;SDS011;9785;59.362;12.152;2023-06-14T06:13:50;6.70;;;4.30;;
19301;SDS011;9785;59.362;12.152;2023-06-14T06:16:18;6.70;;;3.80;;
19301;SDS011;9785;59.362;12.152;2023-06-14T06:18:47;5.03;;;3.50;;
19301;SDS011;9785;59.362;12.152;2023-06-14T06:21:16;6.57;;;3.37;;
19301;SDS011;9785;59.362;12.152;2023-06-14T06:23:46;4.10;;;3.70;;
19301;SDS011;9785;59.362;12.152;2023-06-14T06:26:14;3.80;;;3.47;;
19301;SDS011;9785;59.362;12.152;2023-06-14T06:28:43;6.93;;;4.00;;
19301;SDS011;9785;59.362;12.152;2023-06-14T06:31:12;5.17;;;3.37;;
19301;SDS011;9785;59.362;12.152;2023-06-14T06:33:40;3.40;;;3.17;;
19301;SDS011;9785;59.362;12.152;2023-06-14T06:36:09;2.83;;;2.60;;
19301;SDS011;9785;59.362;12.152;2023-06-14T06:38:38;5.18;;;3.15;;
19301;SDS011;9785;59.362;12.152;2023-06-14T06:41:08;3.28;;;3.08;;
19301;SDS011;9785;59.362;12.152;2023-06-14T06:43:37;2.97;;;2.78;;
19301;SDS011;9785;59.362;12.152;2023-06-14T06:46:06;5.78;;;3.38;;
19301;SDS011;9785;59.362;12.152;2023-06-14T06:48:34;3.33;;;3.10;;
19301;SDS011;9785;59.362;12.152;2023-06-14T06:51:03;3.05;;;2.90;;
19301;SDS011;9785;59.362;12.152;2023-06-14T06:53:32;4.38;;;3.20;;
19301;SDS011;9785;59.362;12.152;2023-06-14T06:56:11;3.50;;;3.13;;
19301;SDS011;9785;59.362;12.152;2023-06-14T06:58:39;5.53;;;3.42;;
19301;SDS011;9785;59.362;12.152;2023-06-14T07:01:08;7.93;;;3.55;;
19301;SDS011;9785;59.362;12.152;2023-06-14T07:03:36;4.65;;;3.60;;
19301;SDS011;9785;59.362;12.152;2023-06-14T07:06:05;4.10;;;3.70;;
19301;SDS011;9785;59.362;12.152;2023-06-14T07:08:34;3.03;;;2.83;;
19301;SDS011;9785;59.362;12.152;2023-06-14T07:11:06;4.18;;;3.05;;
19301;SDS011;9785;59.362;12.152;2023-06-14T07:13:36;4.85;;;2.70;;
19301;SDS011;9785;59.362;12.152;2023-06-14T07:16:04;3.03;;;2.83;;
19301;SDS011;9785;59.362;12.152;2023-06-14T07:18:33;3.80;;;2.92;;
19301;SDS011;9785;59.362;12.152;2023-06-14T07:21:03;3.90;;;2.88;;
19301;SDS011;9785;59.362;12.152;2023-06-14T07:23:32;2.88;;;2.53;;
19301;SDS011;9785;59.362;12.152;2023-06-14T07:26:01;5.53;;;2.80;;
19301;SDS011;9785;59.362;12.152;2023-06-14T07:28:29;5.07;;;2.70;;
19301;SDS011;9785;59.362;12.152;2023-06-14T07:31:00;2.70;;;2.50;;
19301;SDS011;9785;59.362;12.152;2023-06-14T07:33:29;2.72;;;2.53;;
19301;SDS011;9785;59.362;12.152;2023-06-14T07:35:57;3.78;;;2.40;;
19301;SDS011;9785;59.362;12.152;2023-06-14T07:38:26;2.70;;;2.50;;
19301;SDS011;9785;59.362;12.152;2023-06-14T07:40:55;2.58;;;2.47;;
19301;SDS011;9785;59.362;12.152;2023-06-14T07:43:24;2.85;;;2.65;;
19301;SDS011;9785;59.362;12.152;2023-06-14T07:45:52;4.40;;;2.70;;
19301;SDS011;9785;59.362;12.152;2023-06-14T07:48:34;6.05;;;2.60;;
19301;SDS011;9785;59.362;12.152;2023-06-14T07:51:03;4.18;;;2.63;;
19301;SDS011;9785;59.362;12.152;2023-06-14T07:53:31;2.67;;;2.47;;
19301;SDS011;9785;59.362;12.152;2023-06-14T07:56:00;2.95;;;2.30;;
19301;SDS011;9785;59.362;12.152;2023-06-14T07:58:29;5.97;;;2.85;;
19301;SDS011;9785;59.362;12.152;2023-06-14T08:00:57;2.83;;;2.63;;
19301;SDS011;9785;59.362;12.152;2023-06-14T08:03:28;4.63;;;2.53;;
19301;SDS011;9785;59.362;12.152;2023-06-14T08:06:01;3.00;;;2.80;;
19301;SDS011;9785;59.362;12.152;2023-06-14T08:08:30;2.97;;;2.72;;
19301;SDS011;9785;59.362;12.152;2023-06-14T08:10:59;2.83;;;2.63;;
19301;SDS011;9785;59.362;12.152;2023-06-14T08:13:27;3.33;;;2.90;;
19301;SDS011;9785;59.362;12.152;2023-06-14T08:15:56;2.97;;;2.65;;
19301;SDS011;9785;59.362;12.152;2023-06-14T08:18:27;2.88;;;2.67;;
19301;SDS011;9785;59.362;12.152;2023-06-14T08:20:56;2.85;;;2.30;;
19301;SDS011;9785;59.362;12.152;2023-06-14T08:23:26;2.83;;;2.50;;
19301;SDS011;9785;59.362;12.152;2023-06-14T08:25:55;2.50;;;2.22;;
19301;SDS011;9785;59.362;12.152;2023-06-14T08:28:24;2.95;;;2.63;;
19301;SDS011;9785;59.362;12.152;2023-06-14T08:30:52;2.78;;;2.53;;
19301;SDS011;9785;59.362;12.152;2023-06-14T08:33:22;2.88;;;2.53;;
19301;SDS011;9785;59.362;12.152;2023-06-14T08:35:50;3.05;;;2.67;;
19301;SDS011;9785;59.362;12.152;2023-06-14T08:38:19;2.83;;;2.17;;
19301;SDS011;9785;59.362;12.152;2023-06-14T08:40:50;3.42;;;2.65;;
19301;SDS011;9785;59.362;12.152;2023-06-14T08:43:19;3.13;;;2.35;;
19301;SDS011;9785;59.362;12.152;2023-06-14T08:45:47;2.88;;;2.60;;
19301;SDS011;9785;59.362;12.152;2023-06-14T08:48:17;2.42;;;2.22;;
19301;SDS011;9785;59.362;12.152;2023-06-14T08:50:47;2.63;;;2.42;;
19301;SDS011;9785;59.362;12.152;2023-06-14T08:53:20;2.70;;;2.50;;
19301;SDS011;9785;59.362;12.152;2023-06-14T08:55:51;2.67;;;2.30;;
19301;SDS011;9785;59.362;12.152;2023-06-14T08:58:19;2.78;;;2.58;;
19301;SDS011;9785;59.362;12.152;2023-06-14T09:00:50;3.42;;;2.30;;
19301;SDS011;9785;59.362;12.152;2023-06-14T09:03:20;2.88;;;2.60;;
19301;SDS011;9785;59.362;12.152;2023-06-14T09:05:49;2.80;;;2.60;;
19301;SDS011;9785;59.362;12.152;2023-06-14T09:08:19;2.88;;;2.58;;
19301;SDS011;9785;59.362;12.152;2023-06-14T09:10:51;4.80;;;2.92;;
19301;SDS011;9785;59.362;12.152;2023-06-14T09:13:19;3.95;;;2.63;;
19301;SDS011;9785;59.362;12.152;2023-06-14T09:15:49;2.72;;;2.53;;
19301;SDS011;9785;59.362;12.152;2023-06-14T09:18:17;2.70;;;2.60;;
19301;SDS011;9785;59.362;12.152;2023-06-14T09:20:47;2.67;;;2.58;;
19301;SDS011;9785;59.362;12.152;2023-06-14T09:23:20;7.60;;;2.53;;
19301;SDS011;9785;59.362;12.152;2023-06-14T09:25:50;2.70;;;2.50;;
19301;SDS011;9785;59.362;12.152;2023-06-14T09:28:19;3.25;;;2.70;;
19301;SDS011;9785;59.362;12.152;2023-06-14T09:30:49;4.32;;;2.70;;
19301;SDS011;9785;59.362;12.152;2023-06-14T09:33:18;5.85;;;2.63;;
19301;SDS011;9785;59.362;12.152;2023-06-14T09:35:50;5.30;;;2.97;;
19301;SDS011;9785;59.362;12.152;2023-06-14T09:38:19;4.50;;;3.22;;
19301;SDS011;9785;59.362;12.152;2023-06-14T09:40:50;5.38;;;2.80;;
19301;SDS011;9785;59.362;12.152;2023-06-14T09:43:19;3.17;;;2.92;;
19301;SDS011;9785;59.362;12.152;2023-06-14T09:45:48;3.05;;;2.85;;
19301;SDS011;9785;59.362;12.152;2023-06-14T09:48:17;2.60;;;2.50;;
19301;SDS011;9785;59.362;12.152;2023-06-14T09:50:45;3.10;;;2.80;;
19301;SDS011;9785;59.362;12.152;2023-06-14T09:53:15;3.25;;;3.05;;
19301;SDS011;9785;59.362;12.152;2023-06-14T09:55:44;3.03;;;2.83;;
19301;SDS011;9785;59.362;12.152;2023-06-14T09:58:14;3.42;;;2.90;;
19301;SDS011;9785;59.362;12.152;2023-06-14T10:00:44;7.07;;;2.78;;
19301;SDS011;9785;59.362;12.152;2023-06-14T10:03:14;5.00;;;2.80;;
19301;SDS011;9785;59.362;12.152;2023-06-14T10:05:45;4.85;;;2.70;;
19301;SDS011;9785;59.362;12.152;2023-06-14T10:08:14;3.25;;;3.05;;
19301;SDS011;9785;59.362;12.152;2023-06-14T10:10:44;7.57;;;3.00;;
19301;SDS011;9785;59.362;12.152;2023-06-14T10:13:12;2.83;;;2.63;;
19301;SDS011;9785;59.362;12.152;2023-06-14T10:15:50;3.80;;;3.00;;
19301;SDS011;9785;59.362;12.152;2023-06-14T10:18:22;2.92;;;2.78;;
19301;SDS011;9785;59.362;12.152;2023-06-14T10:20:53;2.60;;;2.50;;
19301;SDS011;9785;59.362;12.152;2023-06-14T10:23:24;3.55;;;3.25;;
19301;SDS011;9785;59.362;12.152;2023-06-14T10:25:54;3.10;;;2.90;;
19301;SDS011;9785;59.362;12.152;2023-06-14T10:28:23;3.03;;;2.83;;
19301;SDS011;9785;59.362;12.152;2023-06-14T10:31:07;3.70;;;3.03;;
19301;SDS011;9785;59.362;12.152;2023-06-14T10:33:36;6.30;;;3.17;;
19301;SDS011;9785;59.362;12.152;2023-06-14T10:36:09;3.13;;;2.90;;
19301;SDS011;9785;59.362;12.152;2023-06-14T10:38:37;3.78;;;2.78;;
19301;SDS011;9785;59.362;12.152;2023-06-14T10:41:07;3.75;;;3.10;;
19301;SDS011;9785;59.362;12.152;2023-06-14T10:43:36;3.20;;;3.00;;
19301;SDS011;9785;59.362;12.152;2023-06-14T10:46:16;3.03;;;2.83;;
19301;SDS011;9785;59.362;12.152;2023-06-14T10:48:45;5.05;;;2.97;;
19301;SDS011;9785;59.362;12.152;2023-06-14T10:51:17;3.03;;;2.80;;
19301;SDS011;9785;59.362;12.152;2023-06-14T10:53:49;3.08;;;2.88;;
19301;SDS011;9785;59.362;12.152;2023-06-14T10:56:27;2.90;;;2.80;;
19301;SDS011;9785;59.362;12.152;2023-06-14T10:58:56;3.28;;;3.08;;
19301;SDS011;9785;59.362;12.152;2023-06-14T11:01:31;3.17;;;3.00;;
19301;SDS011;9785;59.362;12.152;2023-06-14T11:07:10;3.33;;;3.13;;
19301;SDS011;9785;59.362;12.152;2023-06-14T11:09:51;3.47;;;3.20;;
19301;SDS011;9785;59.362;12.152;2023-06-14T11:12:27;2.95;;;2.78;;
19301;SDS011;9785;59.362;12.152;2023-06-14T11:14:56;3.42;;;3.20;;
19301;SDS011;9785;59.362;12.152;2023-06-14T11:17:26;3.15;;;2.80;;
19301;SDS011;9785;59.362;12.152;2023-06-14T11:20:09;3.10;;;2.80;;
19301;SDS011;9785;59.362;12.152;2023-06-14T11:22:40;3.10;;;2.90;;
19301;SDS011;9785;59.362;12.152;2023-06-14T11:25:09;3.75;;;3.00;;
19301;SDS011;9785;59.362;12.152;2023-06-14T11:27:38;4.43;;;3.28;;
19301;SDS011;9785;59.362;12.152;2023-06-14T11:30:07;3.63;;;3.33;;
19301;SDS011;9785;59.362;12.152;2023-06-14T11:32:38;3.20;;;3.00;;
19301;SDS011;9785;59.362;12.152;2023-06-14T11:35:08;2.90;;;2.70;;
19301;SDS011;9785;59.362;12.152;2023-06-14T11:37:36;3.28;;;2.97;;
19301;SDS011;9785;59.362;12.152;2023-06-14T11:40:06;4.13;;;3.30;;
19301;SDS011;9785;59.362;12.152;2023-06-14T11:42:36;3.05;;;2.95;;
19301;SDS011;9785;59.362;12.152;2023-06-14T11:45:07;3.10;;;2.90;;
19301;SDS011;9785;59.362;12.152;2023-06-14T11:47:38;3.00;;;2.90;;
19301;SDS011;9785;59.362;12.152;2023-06-14T11:50:07;3.30;;;3.00;;
19301;SDS011;9785;59.362;12.152;2023-06-14T11:52:36;4.00;;;3.17;;
19301;SDS011;9785;59.362;12.152;2023-06-14T11:55:05;3.20;;;3.00;;
19301;SDS011;9785;59.362;12.152;2023-06-14T11:57:34;3.38;;;3.08;;
19301;SDS011;9785;59.362;12.152;2023-06-14T12:00:03;3.30;;;3.10;;
19301;SDS011;9785;59.362;12.152;2023-06-14T12:02:40;4.88;;;3.40;;
19301;SDS011;9785;59.362;12.152;2023-06-14T12:05:09;3.30;;;3.10;;
19301;SDS011;9785;59.362;12.152;2023-06-14T12:07:38;3.10;;;2.90;;
19301;SDS011;9785;59.362;12.152;2023-06-14T12:10:08;3.30;;;3.00;;
19301;SDS011;9785;59.362;12.152;2023-06-14T12:12:37;4.57;;;3.10;;
19301;SDS011;9785;59.362;12.152;2023-06-14T12:15:06;3.25;;;3.10;;
19301;SDS011;9785;59.362;12.152;2023-06-14T12:17:36;4.63;;;3.10;;
19301;SDS011;9785;59.362;12.152;2023-06-14T12:20:10;3.30;;;3.15;;
19301;SDS011;9785;59.362;12.152;2023-06-14T12:22:46;3.30;;;3.00;;
19301;SDS011;9785;59.362;12.152;2023-06-14T12:25:23;3.60;;;3.30;;
19301;SDS011;9785;59.362;12.152;2023-06-14T12:27:53;5.13;;;3.22;;
19301;SDS011;9785;59.362;12.152;2023-06-14T12:30:22;3.50;;;3.20;;
19301;SDS011;9785;59.362;12.152;2023-06-14T12:32:51;3.70;;;3.20;;
19301;SDS011;9785;59.362;12.152;2023-06-14T12:35:21;5.55;;;3.10;;
19301;SDS011;9785;59.362;12.152;2023-06-14T12:37:50;3.58;;;3.30;;
19301;SDS011;9785;59.362;12.152;2023-06-14T12:40:21;3.90;;;3.10;;
19301;SDS011;9785;59.362;12.152;2023-06-14T12:42:50;5.28;;;3.08;;
19301;SDS011;9785;59.362;12.152;2023-06-14T12:45:18;3.47;;;3.10;;
19301;SDS011;9785;59.362;12.152;2023-06-14T12:47:47;3.47;;;3.17;;
19301;SDS011;9785;59.362;12.152;2023-06-14T12:50:15;3.05;;;2.90;;
19301;SDS011;9785;59.362;12.152;2023-06-14T12:52:46;3.10;;;3.00;;
19301;SDS011;9785;59.362;12.152;2023-06-14T12:55:15;3.65;;;3.25;;
19301;SDS011;9785;59.362;12.152;2023-06-14T12:57:45;3.38;;;3.10;;
19301;SDS011;9785;59.362;12.152;2023-06-14T13:00:16;7.07;;;3.08;;
19301;SDS011;9785;59.362;12.152;2023-06-14T13:02:45;3.92;;;2.97;;
19301;SDS011;9785;59.362;12.152;2023-06-14T13:05:13;3.28;;;3.05;;
19301;SDS011;9785;59.362;12.152;2023-06-14T13:07:42;3.22;;;3.03;;
19301;SDS011;9785;59.362;12.152;2023-06-14T13:10:12;3.30;;;3.10;;
19301;SDS011;9785;59.362;12.152;2023-06-14T13:12:41;3.90;;;3.42;;
19301;SDS011;9785;59.362;12.152;2023-06-14T14:10:06;3.70;;;3.15;;
19301;SDS011;9785;59.362;12.152;2023-06-14T14:12:35;3.53;;;3.17;;
19301;SDS011;9785;59.362;12.152;2023-06-14T14:15:05;4.32;;;3.28;;
19301;SDS011;9785;59.362;12.152;2023-06-14T14:17:39;3.40;;;3.15;;
19301;SDS011;9785;59.362;12.152;2023-06-14T14:20:08;6.03;;;3.67;;
19301;SDS011;9785;59.362;12.152;2023-06-14T14:22:39;5.28;;;3.22;;
19301;SDS011;9785;59.362;12.152;2023-06-14T14:25:09;3.05;;;2.85;;
19301;SDS011;9785;59.362;12.152;2023-06-14T14:27:38;3.40;;;3.17;;
19301;SDS011;9785;59.362;12.152;2023-06-14T14:30:07;6.28;;;3.40;;
19301;SDS011;9785;59.362;12.152;2023-06-14T14:32:36;4.18;;;3.45;;
19301;SDS011;9785;59.362;12.152;2023-06-14T14:35:05;3.55;;;3.22;;
19301;SDS011;9785;59.362;12.152;2023-06-14T14:37:34;6.03;;;3.10;;
19301;SDS011;9785;59.362;12.152;2023-06-14T14:40:02;6.15;;;3.17;;
19301;SDS011;9785;59.362;12.152;2023-06-14T14:42:33;4.60;;;3.60;;
19301;SDS011;9785;59.362;12.152;2023-06-14T14:45:02;5.15;;;3.50;;
19301;SDS011;9785;59.362;12.152;2023-06-14T14:47:32;4.75;;;3.40;;
19301;SDS011;9785;59.362;12.152;2023-06-14T14:50:01;4.65;;;3.80;;
19301;SDS011;9785;59.362;12.152;2023-06-14T14:52:30;3.58;;;3.38;;
19301;SDS011;9785;59.362;12.152;2023-06-14T14:54:58;3.85;;;3.40;;
19301;SDS011;9785;59.362;12.152;2023-06-14T14:57:27;4.20;;;3.45;;
19301;SDS011;9785;59.362;12.152;2023-06-14T14:59:57;3.80;;;3.50;;
19301;SDS011;9785;59.362;12.152;2023-06-14T15:05:34;3.97;;;3.67;;
19301;SDS011;9785;59.362;12.152;2023-06-14T15:08:03;3.53;;;3.20;;
19301;SDS011;9785;59.362;12.152;2023-06-14T15:10:37;23.90;;;4.20;;
19301;SDS011;9785;59.362;12.152;2023-06-14T15:13:07;4.18;;;3.67;;
19301;SDS011;9785;59.362;12.152;2023-06-14T15:15:37;3.78;;;3.58;;
19301;SDS011;9785;59.362;12.152;2023-06-14T15:18:05;3.78;;;3.58;;
19301;SDS011;9785;59.362;12.152;2023-06-14T15:20:34;4.20;;;3.88;;
19301;SDS011;9785;59.362;12.152;2023-06-14T15:23:03;4.00;;;3.70;;
19301;SDS011;9785;59.362;12.152;2023-06-14T15:25:32;3.95;;;3.65;;
19301;SDS011;9785;59.362;12.152;2023-06-14T15:28:00;5.18;;;3.50;;
19301;SDS011;9785;59.362;12.152;2023-06-14T15:30:32;5.72;;;3.95;;
19301;SDS011;9785;59.362;12.152;2023-06-14T15:33:03;3.80;;;3.60;;
19301;SDS011;9785;59.362;12.152;2023-06-14T15:35:34;4.70;;;3.70;;
19301;SDS011;9785;59.362;12.152;2023-06-14T15:38:06;3.92;;;3.72;;
19301;SDS011;9785;59.362;12.152;2023-06-14T15:40:35;4.82;;;3.65;;
19301;SDS011;9785;59.362;12.152;2023-06-14T15:43:03;4.22;;;3.55;;
19301;SDS011;9785;59.362;12.152;2023-06-14T15:45:32;4.28;;;3.80;;
19301;SDS011;9785;59.362;12.152;2023-06-14T15:48:02;5.28;;;3.80;;
19301;SDS011;9785;59.362;12.152;2023-06-14T15:50:31;3.90;;;3.55;;
19301;SDS011;9785;59.362;12.152;2023-06-14T15:53:00;4.07;;;3.78;;
19301;SDS011;9785;59.362;12.152;2023-06-14T15:55:29;5.15;;;4.03;;
19301;SDS011;9785;59.362;12.152;2023-06-14T15:57:58;4.00;;;3.75;;
19301;SDS011;9785;59.362;12.152;2023-06-14T16:00:26;4.47;;;4.00;;
19301;SDS011;9785;59.362;12.152;2023-06-14T16:02:55;3.83;;;3.50;;
19301;SDS011;9785;59.362;12.152;2023-06-14T16:05:25;3.90;;;3.60;;